sensor_id;sensor_type;location;lat;lon;timestamp;pressure;altitude;pressure_sealevel;temperature;humidity
65534;BME280;53640;55.838;37.184;2023-01-27T00:06:36;99424.56;;;-3.97;62.78
65534;BME280;53640;55.838;37.184;2023-01-27T00:10:32;99331.94;;;-4.50;62.76
65534;BME280;53640;55.838;37.184;2023-01-27T00:14:15;99236.56;;;-5.13;62.41
65534;BME280;53640;55.838;37.184;2023-01-27T00:22:07;99421.44;;;-3.91;62.86
65534;BME280;53640;55.838;37.184;2023-01-27T00:34:17;99260.56;;;-5.16;63.47
65534;BME280;53640;55.838;37.184;2023-01-27T00:42:14;99419.19;;;-4.18;64.22
65534;BME280;53640;55.838;37.184;2023-01-27T00:57:23;99224.22;;;-5.46;63.70
65534;BME280;53640;55.838;37.184;2023-01-27T01:00:30;99324.13;;;-4.85;64.18
65534;BME280;53640;55.838;37.184;2023-01-27T01:03:18;99316.47;;;-4.77;64.20
65534;BME280;53640;55.838;37.184;2023-01-27T01:05:48;99304.94;;;-4.87;63.82
65534;BME280;53640;55.838;37.184;2023-01-27T01:08:39;99421.00;;;-4.18;64.12
65534;BME280;53640;55.838;37.184;2023-01-27T01:12:02;99361.69;;;-4.59;63.80
65534;BME280;53640;55.838;37.184;2023-01-27T01:15:26;99258.16;;;-5.19;64.00
65534;BME280;53640;55.838;37.184;2023-01-27T01:18:33;99238.75;;;-5.29;63.58
65534;BME280;53640;55.838;37.184;2023-01-27T01:26:38;99312.41;;;-5.04;63.99
65534;BME280;53640;55.838;37.184;2023-01-27T01:30:00;99267.16;;;-5.33;63.81
65534;BME280;53640;55.838;37.184;2023-01-27T01:33:12;99222.31;;;-5.44;63.11
65534;BME280;53640;55.838;37.184;2023-01-27T01:36:17;99236.34;;;-5.32;63.70
65534;BME280;53640;55.838;37.184;2023-01-27T01:43:46;99403.34;;;-4.29;64.09
65534;BME280;53640;55.838;37.184;2023-01-27T01:54:59;99307.81;;;-5.13;63.95
65534;BME280;53640;55.838;37.184;2023-01-27T02:02:40;99386.91;;;-4.44;63.98
65534;BME280;53640;55.838;37.184;2023-01-27T04:08:52;99280.47;;;-5.12;63.84
65534;BME280;53640;55.838;37.184;2023-01-27T04:11:19;99335.28;;;-4.82;63.93
65534;BME280;53640;55.838;37.184;2023-01-27T04:14:05;99388.00;;;-4.46;64.14
65534;BME280;53640;55.838;37.184;2023-01-27T04:16:32;99375.16;;;-4.51;63.70
65534;BME280;53640;55.838;37.184;2023-01-27T04:19:03;99339.63;;;-4.69;63.78
65534;BME280;53640;55.838;37.184;2023-01-27T04:21:30;99402.13;;;-4.36;64.13
65534;BME280;53640;55.838;37.184;2023-01-27T04:24:22;99407.31;;;-4.35;64.04
65534;BME280;53640;55.838;37.184;2023-01-27T04:38:21;99232.97;;;-4.46;63.19
65534;BME280;53640;55.838;37.184;2023-01-27T04:41:44;99315.72;;;-4.02;62.99
65534;BME280;53640;55.838;37.184;2023-01-27T04:44:37;99356.53;;;-3.95;61.98
65534;BME280;53640;55.838;37.184;2023-01-27T04:47:11;99337.16;;;-4.16;62.22
65534;BME280;53640;55.838;37.184;2023-01-27T04:49:41;99235.72;;;-4.91;61.74
65534;BME280;53640;55.838;37.184;2023-01-27T04:52:10;99348.44;;;-4.25;61.80
65534;BME280;53640;55.838;37.184;2023-01-27T04:54:41;99340.19;;;-4.32;61.97
65534;BME280;53640;55.838;37.184;2023-01-27T04:57:41;99237.03;;;-5.08;62.38
65534;BME280;53640;55.838;37.184;2023-01-27T05:00:12;99299.19;;;-4.70;62.49
65534;BME280;53640;55.838;37.184;2023-01-27T05:02:38;99348.84;;;-4.41;62.43
65534;BME280;53640;55.838;37.184;2023-01-27T05:05:13;99257.56;;;-5.11;62.78
65534;BME280;53640;55.838;37.184;2023-01-27T05:07:43;99252.78;;;-5.06;62.89
65534;BME280;53640;55.838;37.184;2023-01-27T05:10:31;99279.25;;;-4.96;62.36
65534;BME280;53640;55.838;37.184;2023-01-27T05:17:26;99327.03;;;-4.77;62.95
65534;BME280;53640;55.838;37.184;2023-01-27T05:20:49;99351.72;;;-4.67;62.83
65534;BME280;53640;55.838;37.184;2023-01-27T05:23:29;99286.34;;;-5.08;62.96
65534;BME280;53640;55.838;37.184;2023-01-27T05:26:49;99252.16;;;-5.32;63.37
65534;BME280;53640;55.838;37.184;2023-01-27T05:30:33;99337.00;;;-4.81;63.52
65534;BME280;53640;55.838;37.184;2023-01-27T05:33:16;99243.78;;;-5.37;63.45
65534;BME280;53640;55.838;37.184;2023-01-27T05:36:23;99441.53;;;-4.22;63.41
65534;BME280;53640;55.838;37.184;2023-01-27T05:39:49;99298.69;;;-5.20;63.75
65534;BME280;53640;55.838;37.184;2023-01-27T05:45:35;99327.38;;;-5.04;63.44
65534;BME280;53640;55.838;37.184;2023-01-27T05:48:02;99391.84;;;-4.62;63.73
65534;BME280;53640;55.838;37.184;2023-01-27T05:50:28;99411.53;;;-4.55;63.70
65534;BME280;53640;55.838;37.184;2023-01-27T05:52:55;99444.19;;;-4.33;64.10
65534;BME280;53640;55.838;37.184;2023-01-27T05:55:21;99418.72;;;-4.57;64.08
65534;BME280;53640;55.838;37.184;2023-01-27T05:57:47;99447.56;;;-4.31;63.96
65534;BME280;53640;55.838;37.184;2023-01-27T06:00:14;99433.13;;;-4.38;64.17
65534;BME280;53640;55.838;37.184;2023-01-27T06:02:41;99418.13;;;-4.49;63.58
65534;BME280;53640;55.838;37.184;2023-01-27T06:05:07;99439.63;;;-4.31;63.07
65534;BME280;53640;55.838;37.184;2023-01-27T06:07:34;99439.63;;;-4.31;63.24
65534;BME280;53640;55.838;37.184;2023-01-27T06:10:00;99429.75;;;-4.40;63.88
65534;BME280;53640;55.838;37.184;2023-01-27T06:12:26;99420.78;;;-4.49;62.90
65534;BME280;53640;55.838;37.184;2023-01-27T06:14:52;99368.69;;;-4.69;63.44
65534;BME280;53640;55.838;37.184;2023-01-27T06:17:22;99441.53;;;-4.33;63.58
65534;BME280;53640;55.838;37.184;2023-01-27T06:19:51;99413.44;;;-4.45;63.78
65534;BME280;53640;55.838;37.184;2023-01-27T06:22:18;99430.50;;;-4.38;63.72
65534;BME280;53640;55.838;37.184;2023-01-27T06:24:44;99436.97;;;-4.31;64.11
65534;BME280;53640;55.838;37.184;2023-01-27T06:27:10;99417.88;;;-4.46;63.94
65534;BME280;53640;55.838;37.184;2023-01-27T06:29:41;99392.44;;;-4.58;64.11
65534;BME280;53640;55.838;37.184;2023-01-27T06:32:07;99445.16;;;-4.23;64.02
65534;BME280;53640;55.838;37.184;2023-01-27T06:34:34;99359.06;;;-4.82;63.59
65534;BME280;53640;55.838;37.184;2023-01-27T06:37:00;99309.38;;;-5.10;63.46
65534;BME280;53640;55.838;37.184;2023-01-27T06:39:26;99451.25;;;-4.22;63.86
65534;BME280;53640;55.838;37.184;2023-01-27T06:41:53;99447.06;;;-4.25;63.97
65534;BME280;53640;55.838;37.184;2023-01-27T06:44:19;99447.19;;;-4.27;63.90
65534;BME280;53640;55.838;37.184;2023-01-27T06:46:45;99460.25;;;-4.36;63.42
65534;BME280;53640;55.838;37.184;2023-01-27T06:49:12;99436.47;;;-4.36;63.71
65534;BME280;53640;55.838;37.184;2023-01-27T06:51:38;99447.56;;;-4.31;63.70
65534;BME280;53640;55.838;37.184;2023-01-27T06:54:04;99444.91;;;-4.31;63.85
65534;BME280;53640;55.838;37.184;2023-01-27T06:56:31;99438.06;;;-4.34;63.79
65534;BME280;53640;55.838;37.184;2023-01-27T06:58:57;99444.41;;;-4.25;63.81
65534;BME280;53640;55.838;37.184;2023-01-27T07:01:23;99454.03;;;-4.13;63.20
65534;BME280;53640;55.838;37.184;2023-01-27T07:03:50;99410.06;;;-4.36;63.71
65534;BME280;53640;55.838;37.184;2023-01-27T07:06:16;99461.22;;;-4.04;63.42
65534;BME280;53640;55.838;37.184;2023-01-27T07:08:44;99458.94;;;-4.08;63.49
65534;BME280;53640;55.838;37.184;2023-01-27T07:11:13;99461.59;;;-4.08;63.04
65534;BME280;53640;55.838;37.184;2023-01-27T07:13:40;99463.03;;;-4.04;63.25
65534;BME280;53640;55.838;37.184;2023-01-27T07:16:06;99472.53;;;-4.01;62.21
65534;BME280;53640;55.838;37.184;2023-01-27T07:18:42;99477.31;;;-3.95;62.70
65534;BME280;53640;55.838;37.184;2023-01-27T07:21:08;99457.13;;;-4.08;62.71
65534;BME280;53640;55.838;37.184;2023-01-27T07:23:35;99456.53;;;-4.11;62.51
65534;BME280;53640;55.838;37.184;2023-01-27T07:26:01;99389.91;;;-4.60;62.68
65534;BME280;53640;55.838;37.184;2023-01-27T07:28:28;99424.38;;;-4.28;62.62
65534;BME280;53640;55.838;37.184;2023-01-27T07:30:59;99435.31;;;-4.21;63.14
65534;BME280;53640;55.838;37.184;2023-01-27T07:33:26;99482.59;;;-3.95;62.99
65534;BME280;53640;55.838;37.184;2023-01-27T07:35:53;99459.78;;;-4.08;62.49
65534;BME280;53640;55.838;37.184;2023-01-27T07:38:20;99480.78;;;-3.95;62.33
65534;BME280;53640;55.838;37.184;2023-01-27T07:40:47;99431.56;;;-4.30;62.68
65534;BME280;53640;55.838;37.184;2023-01-27T07:43:13;99503.41;;;-3.91;62.89
65534;BME280;53640;55.838;37.184;2023-01-27T07:45:40;99450.91;;;-4.18;62.85
65534;BME280;53640;55.838;37.184;2023-01-27T07:48:07;99494.75;;;-3.93;62.93
65534;BME280;53640;55.838;37.184;2023-01-27T07:50:35;99485.75;;;-4.01;63.16
65534;BME280;53640;55.838;37.184;2023-01-27T07:53:03;99496.78;;;-3.85;63.02
65534;BME280;53640;55.838;37.184;2023-01-27T07:55:31;99494.59;;;-3.91;62.89
65534;BME280;53640;55.838;37.184;2023-01-27T07:57:58;99496.31;;;-3.90;63.11
65534;BME280;53640;55.838;37.184;2023-01-27T08:00:25;99371.91;;;-4.66;63.19
65534;BME280;53640;55.838;37.184;2023-01-27T08:02:52;99450.28;;;-4.10;63.24
65534;BME280;53640;55.838;37.184;2023-01-27T08:05:20;99465.53;;;-4.03;63.49
65534;BME280;53640;55.838;37.184;2023-01-27T08:07:51;99462.91;;;-4.03;63.18
65534;BME280;53640;55.838;37.184;2023-01-27T08:10:18;99482.81;;;-3.87;63.17
65534;BME280;53640;55.838;37.184;2023-01-27T08:12:45;99486.69;;;-3.91;63.11
65534;BME280;53640;55.838;37.184;2023-01-27T08:15:11;99455.22;;;-4.06;62.64
65534;BME280;53640;55.838;37.184;2023-01-27T08:17:42;99443.69;;;-4.16;63.11
65534;BME280;53640;55.838;37.184;2023-01-27T08:20:10;99350.66;;;-4.76;62.22
65534;BME280;53640;55.838;37.184;2023-01-27T08:22:38;99507.34;;;-3.74;62.41
65534;BME280;53640;55.838;37.184;2023-01-27T08:25:05;99406.25;;;-4.32;62.09
65534;BME280;53640;55.838;37.184;2023-01-27T08:27:32;99374.78;;;-4.58;62.68
65534;BME280;53640;55.838;37.184;2023-01-27T08:29:58;99501.91;;;-3.72;62.77
65534;BME280;53640;55.838;37.184;2023-01-27T08:32:24;99408.28;;;-4.24;62.52
65534;BME280;53640;55.838;37.184;2023-01-27T08:34:52;99462.78;;;-3.90;62.54
65534;BME280;53640;55.838;37.184;2023-01-27T08:37:19;99502.16;;;-3.64;62.84
65534;BME280;53640;55.838;37.184;2023-01-27T08:39:46;99516.44;;;-3.56;62.34
65534;BME280;53640;55.838;37.184;2023-01-27T08:42:12;99463.25;;;-3.85;62.35
65534;BME280;53640;55.838;37.184;2023-01-27T08:44:38;99497.13;;;-3.67;61.87
65534;BME280;53640;55.838;37.184;2023-01-27T08:47:05;99472.25;;;-3.87;61.98
65534;BME280;53640;55.838;37.184;2023-01-27T08:49:31;99464.69;;;-3.92;62.38
65534;BME280;53640;55.838;37.184;2023-01-27T08:51:57;99510.44;;;-3.58;62.45
65534;BME280;53640;55.838;37.184;2023-01-27T08:54:24;99422.53;;;-4.05;62.75
65534;BME280;53640;55.838;37.184;2023-01-27T08:56:50;99506.84;;;-3.57;62.48
65534;BME280;53640;55.838;37.184;2023-01-27T08:59:17;99467.69;;;-3.85;62.37
65534;BME280;53640;55.838;37.184;2023-01-27T09:01:43;99360.75;;;-4.47;61.92
65534;BME280;53640;55.838;37.184;2023-01-27T09:04:09;99514.63;;;-3.55;62.04
65534;BME280;53640;55.838;37.184;2023-01-27T09:06:37;99472.97;;;-3.74;62.40
65534;BME280;53640;55.838;37.184;2023-01-27T09:09:03;99490.84;;;-3.66;62.48
65534;BME280;53640;55.838;37.184;2023-01-27T09:11:39;99515.13;;;-3.61;61.85
65534;BME280;53640;55.838;37.184;2023-01-27T09:14:05;99511.63;;;-3.62;62.32
65534;BME280;53640;55.838;37.184;2023-01-27T09:16:32;99373.69;;;-4.44;62.46
65534;BME280;53640;55.838;37.184;2023-01-27T09:19:01;99522.72;;;-3.57;62.40
65534;BME280;53640;55.838;37.184;2023-01-27T09:21:31;99460.72;;;-3.86;61.82
65534;BME280;53640;55.838;37.184;2023-01-27T09:23:59;99507.78;;;-3.58;62.31
65534;BME280;53640;55.838;37.184;2023-01-27T09:26:26;99434.09;;;-4.06;62.13
65534;BME280;53640;55.838;37.184;2023-01-27T09:28:53;99519.31;;;-3.47;61.98
65534;BME280;53640;55.838;37.184;2023-01-27T09:31:20;99486.28;;;-3.64;62.43
65534;BME280;53640;55.838;37.184;2023-01-27T09:33:48;99477.03;;;-3.70;62.48
65534;BME280;53640;55.838;37.184;2023-01-27T09:36:18;99499.75;;;-3.56;62.46
65534;BME280;53640;55.838;37.184;2023-01-27T09:39:00;99431.78;;;-4.10;62.12
65534;BME280;53640;55.838;37.184;2023-01-27T09:44:42;99488.94;;;-3.64;62.52
65534;BME280;53640;55.838;37.184;2023-01-27T09:50:29;99521.22;;;-3.38;62.51
65534;BME280;53640;55.838;37.184;2023-01-27T09:53:50;99508.25;;;-3.41;62.39
65534;BME280;53640;55.838;37.184;2023-01-27T09:59:17;99507.28;;;-3.40;62.75
65534;BME280;53640;55.838;37.184;2023-01-27T10:02:51;99498.16;;;-3.47;62.32
65534;BME280;53640;55.838;37.184;2023-01-27T10:05:01;99510.69;;;-3.49;62.14
65534;BME280;53640;55.838;37.184;2023-01-27T10:19:35;99520.13;;;-3.36;63.34
65534;BME280;53640;55.838;37.184;2023-01-27T10:27:56;99454.41;;;-3.63;62.79
65534;BME280;53640;55.838;37.184;2023-01-27T10:30:32;99500.50;;;-3.33;63.06
65534;BME280;53640;55.838;37.184;2023-01-27T10:33:18;99491.25;;;-3.39;62.76
65534;BME280;53640;55.838;37.184;2023-01-27T10:38:48;99521.75;;;-3.23;63.41
65534;BME280;53640;55.838;37.184;2023-01-27T10:47:58;99509.81;;;-3.50;63.00
65534;BME280;53640;55.838;37.184;2023-01-27T10:50:49;99495.03;;;-3.52;63.29
65534;BME280;53640;55.838;37.184;2023-01-27T10:56:12;99500.34;;;-3.52;63.73
65534;BME280;53640;55.838;37.184;2023-01-27T11:01:59;99476.41;;;-3.62;63.31
65534;BME280;53640;55.838;37.184;2023-01-27T11:07:17;99466.41;;;-3.47;63.63
65534;BME280;53640;55.838;37.184;2023-01-27T11:10:02;99472.41;;;-3.45;63.50
65534;BME280;53640;55.838;37.184;2023-01-27T11:12:39;99521.03;;;-3.14;63.54
65534;BME280;53640;55.838;37.184;2023-01-27T11:15:31;99528.34;;;-3.07;63.46
65534;BME280;53640;55.838;37.184;2023-01-27T11:18:25;99511.66;;;-3.18;63.76
65534;BME280;53640;55.838;37.184;2023-01-27T11:21:11;99491.94;;;-3.25;63.18
65534;BME280;53640;55.838;37.184;2023-01-27T11:23:48;99475.72;;;-3.32;63.30
65534;BME280;53640;55.838;37.184;2023-01-27T11:26:40;99532.41;;;-3.02;63.10
65534;BME280;53640;55.838;37.184;2023-01-27T11:30:06;99480.66;;;-3.39;62.85
65534;BME280;53640;55.838;37.184;2023-01-27T11:32:47;99373.75;;;-4.00;62.92
65534;BME280;53640;55.838;37.184;2023-01-27T11:35:20;99406.50;;;-3.81;63.45
65534;BME280;53640;55.838;37.184;2023-01-27T11:37:51;99473.81;;;-3.30;63.41
65534;BME280;53640;55.838;37.184;2023-01-27T11:40:30;99360.06;;;-4.06;63.42
65534;BME280;53640;55.838;37.184;2023-01-27T11:43:26;99408.47;;;-3.62;63.31
65534;BME280;53640;55.838;37.184;2023-01-27T11:46:08;99480.28;;;-3.23;63.46
65534;BME280;53640;55.838;37.184;2023-01-27T11:48:54;99424.31;;;-3.50;63.65
65534;BME280;53640;55.838;37.184;2023-01-27T11:51:40;99434.16;;;-3.41;63.15
65534;BME280;53640;55.838;37.184;2023-01-27T11:54:16;99532.31;;;-2.80;63.25
65534;BME280;53640;55.838;37.184;2023-01-27T11:56:59;99513.97;;;-2.93;63.10
65534;BME280;53640;55.838;37.184;2023-01-27T11:59:32;99488.53;;;-3.16;63.46
65534;BME280;53640;55.838;37.184;2023-01-27T12:05:26;99539.16;;;-2.77;63.32
65534;BME280;53640;55.838;37.184;2023-01-27T12:08:00;99530.44;;;-2.89;63.45
65534;BME280;53640;55.838;37.184;2023-01-27T12:10:39;99523.63;;;-2.82;62.98
65534;BME280;53640;55.838;37.184;2023-01-27T12:13:38;99436.66;;;-3.40;62.99
65534;BME280;53640;55.838;37.184;2023-01-27T12:17:06;99499.41;;;-2.98;63.10
65534;BME280;53640;55.838;37.184;2023-01-27T12:19:53;99502.44;;;-3.03;63.81
65534;BME280;53640;55.838;37.184;2023-01-27T12:22:33;99440.88;;;-3.37;63.08
65534;BME280;53640;55.838;37.184;2023-01-27T12:25:24;99487.31;;;-3.12;62.66
65534;BME280;53640;55.838;37.184;2023-01-27T12:27:58;99431.59;;;-3.43;63.00
65534;BME280;53640;55.838;37.184;2023-01-27T12:30:32;99393.56;;;-3.63;62.83
65534;BME280;53640;55.838;37.184;2023-01-27T12:32:59;99407.25;;;-3.58;62.87
65534;BME280;53640;55.838;37.184;2023-01-27T12:35:37;99440.03;;;-3.38;63.31
65534;BME280;53640;55.838;37.184;2023-01-27T12:38:11;99546.34;;;-2.68;62.49
65534;BME280;53640;55.838;37.184;2023-01-27T12:40:42;99478.06;;;-3.18;62.52
65534;BME280;53640;55.838;37.184;2023-01-27T12:43:17;99471.47;;;-3.23;62.60
65534;BME280;53640;55.838;37.184;2023-01-27T12:46:19;99438.22;;;-3.37;62.57
65534;BME280;53640;55.838;37.184;2023-01-27T12:49:11;99444.16;;;-3.45;62.66
65534;BME280;53640;55.838;37.184;2023-01-27T12:51:55;99436.34;;;-3.58;62.57
65534;BME280;53640;55.838;37.184;2023-01-27T12:54:27;99420.63;;;-3.59;63.09
65534;BME280;53640;55.838;37.184;2023-01-27T12:57:00;99569.34;;;-2.69;63.32
65534;BME280;53640;55.838;37.184;2023-01-27T12:59:27;99510.19;;;-3.11;62.66
65534;BME280;53640;55.838;37.184;2023-01-27T13:05:14;99398.94;;;-3.85;62.36
65534;BME280;53640;55.838;37.184;2023-01-27T13:07:47;99494.00;;;-3.29;62.54
65534;BME280;53640;55.838;37.184;2023-01-27T13:10:29;99550.31;;;-2.95;62.81
65534;BME280;53640;55.838;37.184;2023-01-27T13:17:04;99577.38;;;-2.91;62.85
65534;BME280;53640;55.838;37.184;2023-01-27T13:19:48;99576.88;;;-2.85;63.02
65534;BME280;53640;55.838;37.184;2023-01-27T13:22:25;99466.91;;;-3.65;62.84
65534;BME280;53640;55.838;37.184;2023-01-27T13:24:58;99576.09;;;-2.97;63.18
65534;BME280;53640;55.838;37.184;2023-01-27T13:27:37;99567.56;;;-3.00;63.07
65534;BME280;53640;55.838;37.184;2023-01-27T13:30:33;99590.00;;;-2.84;63.33
65534;BME280;53640;55.838;37.184;2023-01-27T13:41:41;99594.59;;;-2.86;63.54
65534;BME280;53640;55.838;37.184;2023-01-27T13:44:34;99530.31;;;-3.31;63.69
65534;BME280;53640;55.838;37.184;2023-01-27T13:47:40;99490.00;;;-3.56;63.51
65534;BME280;53640;55.838;37.184;2023-01-27T13:59:40;99606.06;;;-2.96;63.29
65534;BME280;53640;55.838;37.184;2023-01-27T14:21:37;99489.59;;;-4.06;64.40
65534;BME280;53640;55.838;37.184;2023-01-27T14:27:55;99618.16;;;-3.26;64.71
65534;BME280;53640;55.838;37.184;2023-01-27T14:30:38;99549.91;;;-3.77;64.71
65534;BME280;53640;55.838;37.184;2023-01-27T14:36:49;99554.19;;;-3.65;64.85
65534;BME280;53640;55.838;37.184;2023-01-27T14:44:22;99653.03;;;-3.21;64.64
65534;BME280;53640;55.838;37.184;2023-01-27T14:56:31;99651.81;;;-3.17;65.06
65534;BME280;53640;55.838;37.184;2023-01-27T15:24:55;99657.34;;;-3.20;65.47
65534;BME280;53640;55.838;37.184;2023-01-27T15:27:23;99649.44;;;-3.31;65.46
65534;BME280;53640;55.838;37.184;2023-01-27T15:30:06;99594.47;;;-3.61;65.44
65534;BME280;53640;55.838;37.184;2023-01-27T15:36:37;99672.53;;;-3.22;65.33
65534;BME280;53640;55.838;37.184;2023-01-27T15:46:23;99563.72;;;-3.96;65.19
65534;BME280;53640;55.838;37.184;2023-01-27T15:53:53;99598.47;;;-3.89;65.60
65534;BME280;53640;55.838;37.184;2023-01-27T15:59:47;99696.13;;;-3.30;65.60
65534;BME280;53640;55.838;37.184;2023-01-27T16:02:51;99684.09;;;-3.34;65.82
65534;BME280;53640;55.838;37.184;2023-01-27T16:05:28;99639.72;;;-3.53;65.78
65534;BME280;53640;55.838;37.184;2023-01-27T16:08:01;99672.53;;;-3.33;65.85
65534;BME280;53640;55.838;37.184;2023-01-27T16:10:33;99684.44;;;-3.27;65.72
65534;BME280;53640;55.838;37.184;2023-01-27T16:13:33;99690.94;;;-3.20;65.48
65534;BME280;53640;55.838;37.184;2023-01-27T16:18:58;99663.28;;;-3.39;65.68
65534;BME280;53640;55.838;37.184;2023-01-27T16:21:49;99691.91;;;-3.21;65.69
65534;BME280;53640;55.838;37.184;2023-01-27T16:24:30;99681.47;;;-3.34;65.71
65534;BME280;53640;55.838;37.184;2023-01-27T16:31:03;99695.63;;;-3.24;65.70
65534;BME280;53640;55.838;37.184;2023-01-27T16:33:37;99623.34;;;-3.81;65.97
65534;BME280;53640;55.838;37.184;2023-01-27T16:36:22;99687.69;;;-3.35;65.88
65534;BME280;53640;55.838;37.184;2023-01-27T16:39:03;99685.78;;;-3.33;65.72
65534;BME280;53640;55.838;37.184;2023-01-27T16:41:58;99516.47;;;-4.45;65.55
65534;BME280;53640;55.838;37.184;2023-01-27T16:44:46;99620.47;;;-3.78;65.61
65534;BME280;53640;55.838;37.184;2023-01-27T16:47:38;99599.91;;;-3.85;65.74
65534;BME280;53640;55.838;37.184;2023-01-27T16:50:32;99709.38;;;-3.19;65.85
65534;BME280;53640;55.838;37.184;2023-01-27T16:53:33;99710.19;;;-3.18;65.93
65534;BME280;53640;55.838;37.184;2023-01-27T16:56:24;99709.22;;;-3.17;65.72
65534;BME280;53640;55.838;37.184;2023-01-27T16:59:00;99693.94;;;-3.25;65.80
65534;BME280;53640;55.838;37.184;2023-01-27T17:04:07;99710.66;;;-3.13;65.87
65534;BME280;53640;55.838;37.184;2023-01-27T17:07:10;99663.41;;;-3.40;65.81
65534;BME280;53640;55.838;37.184;2023-01-27T17:09:55;99663.41;;;-3.40;65.74
65534;BME280;53640;55.838;37.184;2023-01-27T17:12:40;99604.97;;;-3.82;65.69
65534;BME280;53640;55.838;37.184;2023-01-27T17:15:20;99660.28;;;-3.45;65.73
65534;BME280;53640;55.838;37.184;2023-01-27T17:18:24;99713.81;;;-3.08;65.94
65534;BME280;53640;55.838;37.184;2023-01-27T17:20:51;99628.28;;;-3.65;65.93
65534;BME280;53640;55.838;37.184;2023-01-27T17:23:22;99602.41;;;-3.84;65.77
65534;BME280;53640;55.838;37.184;2023-01-27T17:30:44;99591.25;;;-3.87;66.02
65534;BME280;53640;55.838;37.184;2023-01-27T17:34:01;99606.16;;;-3.86;66.02
65534;BME280;53640;55.838;37.184;2023-01-27T17:36:53;99622.88;;;-3.74;65.86
65534;BME280;53640;55.838;37.184;2023-01-27T17:39:26;99699.63;;;-3.30;65.89
65534;BME280;53640;55.838;37.184;2023-01-27T17:41:54;99608.69;;;-3.73;65.84
65534;BME280;53640;55.838;37.184;2023-01-27T17:44:48;99728.84;;;-3.09;65.66
65534;BME280;53640;55.838;37.184;2023-01-27T17:47:35;99555.69;;;-4.06;65.68
65534;BME280;53640;55.838;37.184;2023-01-27T17:50:44;99731.97;;;-3.03;65.87
65534;BME280;53640;55.838;37.184;2023-01-27T17:53:33;99723.19;;;-3.04;65.82
65534;BME280;53640;55.838;37.184;2023-01-27T18:04:13;99608.06;;;-3.99;66.38
65534;BME280;53640;55.838;37.184;2023-01-27T18:06:47;99587.41;;;-4.06;65.94
65534;BME280;53640;55.838;37.184;2023-01-27T18:09:51;99566.72;;;-4.23;65.98
65534;BME280;53640;55.838;37.184;2023-01-27T18:12:36;99672.19;;;-3.51;66.39
65534;BME280;53640;55.838;37.184;2023-01-27T18:18:36;99741.00;;;-3.06;66.38
65534;BME280;53640;55.838;37.184;2023-01-27T18:21:04;99747.25;;;-3.07;66.32
65534;BME280;53640;55.838;37.184;2023-01-27T18:23:40;99749.69;;;-3.04;66.03
65534;BME280;53640;55.838;37.184;2023-01-27T18:37:38;99747.13;;;-3.06;65.95
65534;BME280;53640;55.838;37.184;2023-01-27T18:44:11;99697.34;;;-3.34;66.27
65534;BME280;53640;55.838;37.184;2023-01-27T18:46:38;99577.53;;;-4.04;66.06
65534;BME280;53640;55.838;37.184;2023-01-27T18:49:08;99674.00;;;-3.51;66.20
65534;BME280;53640;55.838;37.184;2023-01-27T18:51:42;99631.88;;;-3.66;66.00
65534;BME280;53640;55.838;37.184;2023-01-27T18:54:10;99615.41;;;-3.81;65.99
65534;BME280;53640;55.838;37.184;2023-01-27T18:57:03;99756.28;;;-2.87;65.93
65534;BME280;53640;55.838;37.184;2023-01-27T19:00:15;99773.25;;;-2.90;65.98
65534;BME280;53640;55.838;37.184;2023-01-27T19:03:10;99750.28;;;-3.00;66.23
65534;BME280;53640;55.838;37.184;2023-01-27T19:09:33;99721.41;;;-3.15;66.02
65534;BME280;53640;55.838;37.184;2023-01-27T19:12:22;99732.34;;;-3.08;66.02
65534;BME280;53640;55.838;37.184;2023-01-27T19:15:16;99751.72;;;-2.96;65.80
65534;BME280;53640;55.838;37.184;2023-01-27T19:21:02;99738.47;;;-3.08;65.51
65534;BME280;53640;55.838;37.184;2023-01-27T19:23:43;99708.75;;;-3.22;66.01
65534;BME280;53640;55.838;37.184;2023-01-27T19:26:25;99757.63;;;-2.93;65.67
65534;BME280;53640;55.838;37.184;2023-01-27T19:29:02;99666.41;;;-3.45;65.67
65534;BME280;53640;55.838;37.184;2023-01-27T19:31:32;99770.13;;;-2.84;65.64
65534;BME280;53640;55.838;37.184;2023-01-27T19:34:01;99784.44;;;-2.75;65.66
65534;BME280;53640;55.838;37.184;2023-01-27T19:36:39;99778.19;;;-2.74;65.46
65534;BME280;53640;55.838;37.184;2023-01-27T19:39:18;99782.88;;;-2.77;65.44
65534;BME280;53640;55.838;37.184;2023-01-27T19:41:53;99710.44;;;-3.21;65.50
65534;BME280;53640;55.838;37.184;2023-01-27T19:44:23;99763.97;;;-2.84;65.72
65534;BME280;53640;55.838;37.184;2023-01-27T19:46:49;99686.38;;;-3.30;65.66
65534;BME280;53640;55.838;37.184;2023-01-27T19:49:34;99795.28;;;-2.67;65.49
65534;BME280;53640;55.838;37.184;2023-01-27T19:52:34;99761.81;;;-2.79;65.56
65534;BME280;53640;55.838;37.184;2023-01-27T19:55:00;99737.63;;;-2.97;65.47
65534;BME280;53640;55.838;37.184;2023-01-27T20:00:53;99784.41;;;-2.64;65.70
65534;BME280;53640;55.838;37.184;2023-01-27T20:04:04;99648.00;;;-3.46;65.23
65534;BME280;53640;55.838;37.184;2023-01-27T20:18:26;99704.78;;;-3.28;66.28
65534;BME280;53640;55.838;37.184;2023-01-27T20:21:33;99667.72;;;-3.50;66.06
65534;BME280;53640;55.838;37.184;2023-01-27T20:24:00;99761.09;;;-2.81;65.90
65534;BME280;53640;55.838;37.184;2023-01-27T20:26:27;99772.63;;;-2.71;66.06
65534;BME280;53640;55.838;37.184;2023-01-27T20:28:57;99738.09;;;-2.92;65.96
65534;BME280;53640;55.838;37.184;2023-01-27T20:31:25;99781.75;;;-2.64;65.70
65534;BME280;53640;55.838;37.184;2023-01-27T20:33:51;99776.84;;;-2.68;65.90
65534;BME280;53640;55.838;37.184;2023-01-27T20:36:21;99788.41;;;-2.58;66.31
65534;BME280;53640;55.838;37.184;2023-01-27T20:38:49;99669.06;;;-3.34;65.97
65534;BME280;53640;55.838;37.184;2023-01-27T20:41:19;99793.47;;;-2.55;65.84
65534;BME280;53640;55.838;37.184;2023-01-27T20:43:46;99793.09;;;-2.50;65.93
65534;BME280;53640;55.838;37.184;2023-01-27T20:46:16;99775.38;;;-2.61;65.85
65534;BME280;53640;55.838;37.184;2023-01-27T20:48:44;99775.59;;;-2.53;65.98
65534;BME280;53640;55.838;37.184;2023-01-27T20:51:13;99794.97;;;-2.41;66.08
65534;BME280;53640;55.838;37.184;2023-01-27T20:53:43;99744.81;;;-2.65;65.76
65534;BME280;53640;55.838;37.184;2023-01-27T20:56:35;99697.03;;;-2.97;65.72